sensor_id;sensor_type;location;lat;lon;timestamp;P1;durP1;ratioP1;P2;durP2;ratioP2
29634;SDS011;16557;54.762;56.068;2023-06-14T00:01:36;3.95;;;2.40;;
29634;SDS011;16557;54.762;56.068;2023-06-14T00:04:20;6.42;;;2.75;;
29634;SDS011;16557;54.762;56.068;2023-06-14T00:07:01;5.90;;;2.70;;
29634;SDS011;16557;54.762;56.068;2023-06-14T00:09:41;8.10;;;2.75;;
29634;SDS011;16557;54.762;56.068;2023-06-14T00:12:27;11.03;;;3.60;;
29634;SDS011;16557;54.762;56.068;2023-06-14T00:15:07;4.20;;;2.40;;
29634;SDS011;16557;54.762;56.068;2023-06-14T00:17:49;4.90;;;2.77;;
29634;SDS011;16557;54.762;56.068;2023-06-14T00:20:29;11.08;;;2.70;;
29634;SDS011;16557;54.762;56.068;2023-06-14T00:23:10;4.12;;;2.30;;
29634;SDS011;16557;54.762;56.068;2023-06-14T00:25:50;3.62;;;2.17;;
29634;SDS011;16557;54.762;56.068;2023-06-14T00:28:30;8.93;;;2.77;;
29634;SDS011;16557;54.762;56.068;2023-06-14T00:31:15;4.08;;;2.33;;
29634;SDS011;16557;54.762;56.068;2023-06-14T00:33:55;4.70;;;2.60;;
29634;SDS011;16557;54.762;56.068;2023-06-14T00:36:35;6.10;;;2.50;;
29634;SDS011;16557;54.762;56.068;2023-06-14T00:39:14;6.58;;;2.20;;
29634;SDS011;16557;54.762;56.068;2023-06-14T00:41:54;3.52;;;2.00;;
29634;SDS011;16557;54.762;56.068;2023-06-14T00:44:35;9.30;;;3.17;;
29634;SDS011;16557;54.762;56.068;2023-06-14T00:47:20;5.78;;;2.83;;
29634;SDS011;16557;54.762;56.068;2023-06-14T00:49:59;9.65;;;3.30;;
29634;SDS011;16557;54.762;56.068;2023-06-14T00:52:39;5.22;;;2.77;;
29634;SDS011;16557;54.762;56.068;2023-06-14T00:55:19;6.15;;;3.05;;
29634;SDS011;16557;54.762;56.068;2023-06-14T00:58:09;10.43;;;2.55;;
29634;SDS011;16557;54.762;56.068;2023-06-14T01:00:49;6.40;;;3.00;;
29634;SDS011;16557;54.762;56.068;2023-06-14T01:03:29;6.65;;;2.55;;
29634;SDS011;16557;54.762;56.068;2023-06-14T01:09:15;5.12;;;2.55;;
29634;SDS011;16557;54.762;56.068;2023-06-14T01:12:11;4.50;;;2.42;;
29634;SDS011;16557;54.762;56.068;2023-06-14T01:14:50;7.53;;;2.77;;
29634;SDS011;16557;54.762;56.068;2023-06-14T01:17:31;7.15;;;3.00;;
29634;SDS011;16557;54.762;56.068;2023-06-14T01:20:11;11.22;;;3.30;;
29634;SDS011;16557;54.762;56.068;2023-06-14T01:22:56;7.03;;;3.33;;
29634;SDS011;16557;54.762;56.068;2023-06-14T01:25:36;8.90;;;3.20;;
29634;SDS011;16557;54.762;56.068;2023-06-14T01:28:22;8.10;;;3.98;;
29634;SDS011;16557;54.762;56.068;2023-06-14T01:31:04;8.18;;;3.20;;
29634;SDS011;16557;54.762;56.068;2023-06-14T01:33:45;12.10;;;3.00;;
29634;SDS011;16557;54.762;56.068;2023-06-14T01:36:33;6.62;;;3.20;;
29634;SDS011;16557;54.762;56.068;2023-06-14T01:39:14;8.90;;;3.83;;
29634;SDS011;16557;54.762;56.068;2023-06-14T01:41:54;10.28;;;3.45;;
29634;SDS011;16557;54.762;56.068;2023-06-14T01:44:35;13.48;;;3.58;;
29634;SDS011;16557;54.762;56.068;2023-06-14T01:47:21;9.40;;;3.72;;
29634;SDS011;16557;54.762;56.068;2023-06-14T01:50:01;9.65;;;3.47;;
29634;SDS011;16557;54.762;56.068;2023-06-14T01:52:42;9.60;;;3.50;;
29634;SDS011;16557;54.762;56.068;2023-06-14T01:55:23;12.82;;;4.40;;
29634;SDS011;16557;54.762;56.068;2023-06-14T01:58:05;9.60;;;3.72;;
29634;SDS011;16557;54.762;56.068;2023-06-14T02:00:45;16.23;;;3.90;;
29634;SDS011;16557;54.762;56.068;2023-06-14T02:03:25;9.88;;;4.53;;
29634;SDS011;16557;54.762;56.068;2023-06-14T02:06:06;10.13;;;4.05;;
29634;SDS011;16557;54.762;56.068;2023-06-14T02:08:46;11.45;;;4.30;;
29634;SDS011;16557;54.762;56.068;2023-06-14T02:11:31;18.82;;;5.12;;
29634;SDS011;16557;54.762;56.068;2023-06-14T02:14:17;13.05;;;4.40;;
29634;SDS011;16557;54.762;56.068;2023-06-14T02:16:57;13.50;;;4.03;;
29634;SDS011;16557;54.762;56.068;2023-06-14T02:19:38;9.35;;;3.33;;
29634;SDS011;16557;54.762;56.068;2023-06-14T02:22:18;8.55;;;3.75;;
29634;SDS011;16557;54.762;56.068;2023-06-14T02:24:59;15.95;;;3.47;;
29634;SDS011;16557;54.762;56.068;2023-06-14T02:27:39;9.05;;;3.40;;
29634;SDS011;16557;54.762;56.068;2023-06-14T02:30:19;11.40;;;3.65;;
29634;SDS011;16557;54.762;56.068;2023-06-14T02:33:03;9.90;;;3.60;;
29634;SDS011;16557;54.762;56.068;2023-06-14T02:35:43;13.38;;;3.62;;
29634;SDS011;16557;54.762;56.068;2023-06-14T02:38:30;12.98;;;3.98;;
29634;SDS011;16557;54.762;56.068;2023-06-14T02:41:09;10.35;;;3.85;;
29634;SDS011;16557;54.762;56.068;2023-06-14T02:43:55;11.35;;;3.40;;
29634;SDS011;16557;54.762;56.068;2023-06-14T02:46:36;10.78;;;3.45;;
29634;SDS011;16557;54.762;56.068;2023-06-14T02:49:16;11.50;;;4.10;;
29634;SDS011;16557;54.762;56.068;2023-06-14T02:52:02;11.00;;;3.37;;
29634;SDS011;16557;54.762;56.068;2023-06-14T02:54:42;8.03;;;3.47;;
29634;SDS011;16557;54.762;56.068;2023-06-14T02:57:27;13.28;;;3.45;;
29634;SDS011;16557;54.762;56.068;2023-06-14T03:00:07;6.70;;;3.22;;
29634;SDS011;16557;54.762;56.068;2023-06-14T03:02:48;8.40;;;3.22;;
29634;SDS011;16557;54.762;56.068;2023-06-14T03:05:33;10.40;;;3.45;;
29634;SDS011;16557;54.762;56.068;2023-06-14T03:08:13;7.15;;;2.98;;
29634;SDS011;16557;54.762;56.068;2023-06-14T03:10:54;5.75;;;3.72;;
29634;SDS011;16557;54.762;56.068;2023-06-14T03:13:39;6.80;;;3.05;;
29634;SDS011;16557;54.762;56.068;2023-06-14T03:16:19;5.97;;;3.12;;
29634;SDS011;16557;54.762;56.068;2023-06-14T03:19:00;4.95;;;2.80;;
29634;SDS011;16557;54.762;56.068;2023-06-14T03:21:41;11.25;;;2.95;;
29634;SDS011;16557;54.762;56.068;2023-06-14T03:24:23;7.60;;;3.10;;
29634;SDS011;16557;54.762;56.068;2023-06-14T03:27:05;10.93;;;4.05;;
29634;SDS011;16557;54.762;56.068;2023-06-14T03:29:44;14.75;;;4.37;;
29634;SDS011;16557;54.762;56.068;2023-06-14T03:32:24;16.80;;;3.35;;
29634;SDS011;16557;54.762;56.068;2023-06-14T03:35:04;8.23;;;3.27;;
29634;SDS011;16557;54.762;56.068;2023-06-14T03:37:44;14.10;;;3.08;;
29634;SDS011;16557;54.762;56.068;2023-06-14T03:40:31;5.75;;;2.75;;
29634;SDS011;16557;54.762;56.068;2023-06-14T03:43:11;7.33;;;3.45;;
29634;SDS011;16557;54.762;56.068;2023-06-14T03:45:51;3.27;;;2.37;;
29634;SDS011;16557;54.762;56.068;2023-06-14T03:48:36;10.98;;;4.58;;
29634;SDS011;16557;54.762;56.068;2023-06-14T03:51:16;9.45;;;3.17;;
29634;SDS011;16557;54.762;56.068;2023-06-14T03:53:56;7.42;;;2.75;;
29634;SDS011;16557;54.762;56.068;2023-06-14T03:56:35;8.00;;;2.85;;
29634;SDS011;16557;54.762;56.068;2023-06-14T03:59:15;11.08;;;3.47;;
29634;SDS011;16557;54.762;56.068;2023-06-14T04:01:59;12.88;;;3.33;;
29634;SDS011;16557;54.762;56.068;2023-06-14T04:04:45;8.95;;;4.20;;
29634;SDS011;16557;54.762;56.068;2023-06-14T04:07:26;10.68;;;3.80;;
29634;SDS011;16557;54.762;56.068;2023-06-14T04:10:12;9.55;;;3.08;;
29634;SDS011;16557;54.762;56.068;2023-06-14T04:12:53;9.68;;;4.08;;
29634;SDS011;16557;54.762;56.068;2023-06-14T04:15:39;9.95;;;4.87;;
29634;SDS011;16557;54.762;56.068;2023-06-14T04:18:24;12.00;;;3.10;;
29634;SDS011;16557;54.762;56.068;2023-06-14T04:21:08;12.55;;;3.45;;
29634;SDS011;16557;54.762;56.068;2023-06-14T04:23:48;6.97;;;3.30;;
29634;SDS011;16557;54.762;56.068;2023-06-14T04:26:29;7.17;;;3.30;;
29634;SDS011;16557;54.762;56.068;2023-06-14T04:29:30;8.45;;;3.15;;
29634;SDS011;16557;54.762;56.068;2023-06-14T04:32:10;8.90;;;2.80;;
29634;SDS011;16557;54.762;56.068;2023-06-14T04:34:53;9.08;;;4.25;;
29634;SDS011;16557;54.762;56.068;2023-06-14T04:37:32;5.85;;;2.62;;
29634;SDS011;16557;54.762;56.068;2023-06-14T04:40:22;5.75;;;2.65;;
29634;SDS011;16557;54.762;56.068;2023-06-14T04:43:02;8.00;;;3.00;;
29634;SDS011;16557;54.762;56.068;2023-06-14T04:45:48;7.72;;;3.15;;
29634;SDS011;16557;54.762;56.068;2023-06-14T04:48:29;12.82;;;3.02;;
29634;SDS011;16557;54.762;56.068;2023-06-14T04:51:13;14.00;;;3.40;;
29634;SDS011;16557;54.762;56.068;2023-06-14T04:53:53;5.80;;;3.00;;
29634;SDS011;16557;54.762;56.068;2023-06-14T04:56:34;9.55;;;2.80;;
29634;SDS011;16557;54.762;56.068;2023-06-14T04:59:16;7.60;;;2.70;;
29634;SDS011;16557;54.762;56.068;2023-06-14T05:01:55;7.33;;;2.33;;
29634;SDS011;16557;54.762;56.068;2023-06-14T05:04:35;4.08;;;2.40;;
29634;SDS011;16557;54.762;56.068;2023-06-14T05:07:23;9.10;;;2.87;;
29634;SDS011;16557;54.762;56.068;2023-06-14T05:10:03;11.12;;;3.05;;
29634;SDS011;16557;54.762;56.068;2023-06-14T05:12:43;7.03;;;2.90;;
29634;SDS011;16557;54.762;56.068;2023-06-14T05:15:27;4.90;;;2.67;;
29634;SDS011;16557;54.762;56.068;2023-06-14T05:18:07;7.33;;;3.75;;
29634;SDS011;16557;54.762;56.068;2023-06-14T05:20:47;7.42;;;4.15;;
29634;SDS011;16557;54.762;56.068;2023-06-14T05:23:17;11.97;;;3.52;;
29634;SDS011;16557;54.762;56.068;2023-06-14T05:25:56;9.48;;;2.37;;
29634;SDS011;16557;54.762;56.068;2023-06-14T05:28:36;8.15;;;2.70;;
29634;SDS011;16557;54.762;56.068;2023-06-14T05:31:15;7.33;;;2.90;;
29634;SDS011;16557;54.762;56.068;2023-06-14T05:33:55;8.43;;;2.15;;
29634;SDS011;16557;54.762;56.068;2023-06-14T05:36:39;11.22;;;2.87;;
29634;SDS011;16557;54.762;56.068;2023-06-14T05:39:20;11.75;;;3.05;;
29634;SDS011;16557;54.762;56.068;2023-06-14T05:41:59;7.00;;;2.62;;
29634;SDS011;16557;54.762;56.068;2023-06-14T05:44:39;8.70;;;3.02;;
29634;SDS011;16557;54.762;56.068;2023-06-14T05:47:19;7.20;;;2.98;;
29634;SDS011;16557;54.762;56.068;2023-06-14T05:49:49;4.65;;;2.70;;
29634;SDS011;16557;54.762;56.068;2023-06-14T05:52:28;4.80;;;3.15;;
29634;SDS011;16557;54.762;56.068;2023-06-14T05:55:01;11.57;;;2.92;;
29634;SDS011;16557;54.762;56.068;2023-06-14T05:57:41;9.73;;;3.33;;
29634;SDS011;16557;54.762;56.068;2023-06-14T06:00:28;9.40;;;3.30;;
29634;SDS011;16557;54.762;56.068;2023-06-14T06:03:14;10.28;;;4.42;;
29634;SDS011;16557;54.762;56.068;2023-06-14T06:05:53;4.72;;;2.98;;
29634;SDS011;16557;54.762;56.068;2023-06-14T06:08:33;4.15;;;2.45;;
29634;SDS011;16557;54.762;56.068;2023-06-14T06:11:13;10.50;;;4.47;;
29634;SDS011;16557;54.762;56.068;2023-06-14T06:13:53;11.90;;;6.78;;
29634;SDS011;16557;54.762;56.068;2023-06-14T06:16:34;11.12;;;5.65;;
29634;SDS011;16557;54.762;56.068;2023-06-14T06:19:20;7.90;;;3.40;;
29634;SDS011;16557;54.762;56.068;2023-06-14T06:22:00;7.75;;;3.15;;
29634;SDS011;16557;54.762;56.068;2023-06-14T06:24:49;9.95;;;3.27;;
29634;SDS011;16557;54.762;56.068;2023-06-14T06:27:35;7.87;;;3.30;;
29634;SDS011;16557;54.762;56.068;2023-06-14T06:30:15;9.48;;;2.72;;
29634;SDS011;16557;54.762;56.068;2023-06-14T06:32:55;3.98;;;2.67;;
29634;SDS011;16557;54.762;56.068;2023-06-14T06:35:41;9.03;;;3.55;;
29634;SDS011;16557;54.762;56.068;2023-06-14T06:38:21;11.15;;;3.30;;
29634;SDS011;16557;54.762;56.068;2023-06-14T06:41:01;8.83;;;4.00;;
29634;SDS011;16557;54.762;56.068;2023-06-14T06:43:40;8.30;;;3.02;;
29634;SDS011;16557;54.762;56.068;2023-06-14T06:46:20;6.53;;;3.33;;
29634;SDS011;16557;54.762;56.068;2023-06-14T06:49:04;9.30;;;3.02;;
29634;SDS011;16557;54.762;56.068;2023-06-14T06:51:52;8.38;;;3.10;;
29634;SDS011;16557;54.762;56.068;2023-06-14T06:54:26;6.30;;;2.70;;
29634;SDS011;16557;54.762;56.068;2023-06-14T06:57:06;14.85;;;3.67;;
29634;SDS011;16557;54.762;56.068;2023-06-14T06:59:46;9.18;;;3.30;;
29634;SDS011;16557;54.762;56.068;2023-06-14T07:02:25;6.97;;;2.90;;
29634;SDS011;16557;54.762;56.068;2023-06-14T07:05:05;10.65;;;3.27;;
29634;SDS011;16557;54.762;56.068;2023-06-14T07:07:45;11.20;;;3.10;;
29634;SDS011;16557;54.762;56.068;2023-06-14T07:10:25;9.13;;;3.87;;
29634;SDS011;16557;54.762;56.068;2023-06-14T07:13:05;8.53;;;2.52;;
29634;SDS011;16557;54.762;56.068;2023-06-14T07:15:49;7.30;;;3.50;;
29634;SDS011;16557;54.762;56.068;2023-06-14T07:18:30;10.65;;;3.15;;
29634;SDS011;16557;54.762;56.068;2023-06-14T07:21:10;8.40;;;3.22;;
29634;SDS011;16557;54.762;56.068;2023-06-14T07:23:49;15.93;;;9.80;;
29634;SDS011;16557;54.762;56.068;2023-06-14T07:26:29;6.25;;;2.92;;
29634;SDS011;16557;54.762;56.068;2023-06-14T07:29:13;12.35;;;3.22;;
29634;SDS011;16557;54.762;56.068;2023-06-14T07:31:54;7.78;;;2.87;;
29634;SDS011;16557;54.762;56.068;2023-06-14T07:34:39;11.88;;;3.22;;
29634;SDS011;16557;54.762;56.068;2023-06-14T07:37:19;8.93;;;3.02;;
29634;SDS011;16557;54.762;56.068;2023-06-14T07:39:59;6.20;;;2.58;;
29634;SDS011;16557;54.762;56.068;2023-06-14T07:42:40;13.65;;;6.58;;
29634;SDS011;16557;54.762;56.068;2023-06-14T07:45:26;7.28;;;3.87;;
29634;SDS011;16557;54.762;56.068;2023-06-14T07:48:06;9.68;;;3.27;;
29634;SDS011;16557;54.762;56.068;2023-06-14T07:50:52;6.58;;;3.15;;
29634;SDS011;16557;54.762;56.068;2023-06-14T07:53:32;9.85;;;2.62;;
29634;SDS011;16557;54.762;56.068;2023-06-14T07:56:12;7.50;;;2.58;;
29634;SDS011;16557;54.762;56.068;2023-06-14T07:58:51;9.53;;;3.00;;
29634;SDS011;16557;54.762;56.068;2023-06-14T08:01:31;9.85;;;3.15;;
29634;SDS011;16557;54.762;56.068;2023-06-14T08:04:13;6.35;;;2.72;;
29634;SDS011;16557;54.762;56.068;2023-06-14T08:06:53;6.80;;;3.12;;
29634;SDS011;16557;54.762;56.068;2023-06-14T08:09:38;7.08;;;3.27;;
29634;SDS011;16557;54.762;56.068;2023-06-14T08:12:18;8.73;;;2.90;;
29634;SDS011;16557;54.762;56.068;2023-06-14T08:14:58;4.70;;;2.55;;
29634;SDS011;16557;54.762;56.068;2023-06-14T08:17:38;4.03;;;2.60;;
29634;SDS011;16557;54.762;56.068;2023-06-14T08:20:24;7.05;;;4.53;;
29634;SDS011;16557;54.762;56.068;2023-06-14T08:23:04;10.20;;;3.00;;
29634;SDS011;16557;54.762;56.068;2023-06-14T08:25:45;5.72;;;3.17;;
29634;SDS011;16557;54.762;56.068;2023-06-14T08:28:26;4.20;;;2.27;;
29634;SDS011;16557;54.762;56.068;2023-06-14T08:31:06;7.62;;;3.00;;
29634;SDS011;16557;54.762;56.068;2023-06-14T08:33:53;11.73;;;2.98;;
29634;SDS011;16557;54.762;56.068;2023-06-14T08:36:33;5.30;;;2.85;;
29634;SDS011;16557;54.762;56.068;2023-06-14T08:39:20;9.48;;;2.67;;
29634;SDS011;16557;54.762;56.068;2023-06-14T08:42:00;7.15;;;2.80;;
29634;SDS011;16557;54.762;56.068;2023-06-14T08:44:41;6.35;;;2.80;;
29634;SDS011;16557;54.762;56.068;2023-06-14T08:47:21;4.78;;;2.55;;
29634;SDS011;16557;54.762;56.068;2023-06-14T08:50:04;7.53;;;3.08;;
29634;SDS011;16557;54.762;56.068;2023-06-14T08:52:45;8.03;;;2.77;;
29634;SDS011;16557;54.762;56.068;2023-06-14T08:55:26;7.62;;;2.60;;
29634;SDS011;16557;54.762;56.068;2023-06-14T08:58:07;10.28;;;3.08;;
29634;SDS011;16557;54.762;56.068;2023-06-14T09:00:47;4.80;;;2.60;;
29634;SDS011;16557;54.762;56.068;2023-06-14T09:03:33;7.30;;;2.85;;
29634;SDS011;16557;54.762;56.068;2023-06-14T09:06:17;6.97;;;2.75;;
29634;SDS011;16557;54.762;56.068;2023-06-14T09:09:01;10.10;;;2.90;;
29634;SDS011;16557;54.762;56.068;2023-06-14T09:11:42;10.65;;;3.00;;
29634;SDS011;16557;54.762;56.068;2023-06-14T09:14:27;8.63;;;3.98;;
29634;SDS011;16557;54.762;56.068;2023-06-14T09:16:57;8.60;;;3.58;;
29634;SDS011;16557;54.762;56.068;2023-06-14T09:19:37;8.90;;;2.83;;
29634;SDS011;16557;54.762;56.068;2023-06-14T09:22:16;6.05;;;2.62;;
29634;SDS011;16557;54.762;56.068;2023-06-14T09:24:56;8.75;;;3.17;;
29634;SDS011;16557;54.762;56.068;2023-06-14T09:27:36;8.38;;;2.85;;
29634;SDS011;16557;54.762;56.068;2023-06-14T09:30:19;6.50;;;2.70;;
29634;SDS011;16557;54.762;56.068;2023-06-14T09:32:59;9.95;;;2.65;;
29634;SDS011;16557;54.762;56.068;2023-06-14T09:35:38;7.78;;;2.92;;
29634;SDS011;16557;54.762;56.068;2023-06-14T09:38:28;5.75;;;2.20;;
29634;SDS011;16557;54.762;56.068;2023-06-14T09:41:08;7.78;;;2.75;;
29634;SDS011;16557;54.762;56.068;2023-06-14T09:43:48;4.25;;;2.30;;
29634;SDS011;16557;54.762;56.068;2023-06-14T09:46:28;7.92;;;2.67;;
29634;SDS011;16557;54.762;56.068;2023-06-14T09:49:08;7.08;;;2.80;;
29634;SDS011;16557;54.762;56.068;2023-06-14T09:51:49;4.42;;;2.50;;
29634;SDS011;16557;54.762;56.068;2023-06-14T09:54:29;5.28;;;2.87;;
29634;SDS011;16557;54.762;56.068;2023-06-14T09:57:14;4.70;;;2.58;;
29634;SDS011;16557;54.762;56.068;2023-06-14T09:59:56;4.42;;;2.45;;
29634;SDS011;16557;54.762;56.068;2023-06-14T10:02:38;6.22;;;2.98;;
29634;SDS011;16557;54.762;56.068;2023-06-14T10:05:19;7.37;;;2.58;;
29634;SDS011;16557;54.762;56.068;2023-06-14T10:08:08;6.33;;;2.80;;
29634;SDS011;16557;54.762;56.068;2023-06-14T10:10:49;6.28;;;2.52;;
29634;SDS011;16557;54.762;56.068;2023-06-14T10:13:30;8.20;;;3.05;;
29634;SDS011;16557;54.762;56.068;2023-06-14T10:16:18;7.35;;;3.37;;
29634;SDS011;16557;54.762;56.068;2023-06-14T10:24:39;9.20;;;2.90;;
29634;SDS011;16557;54.762;56.068;2023-06-14T10:27:22;4.25;;;2.67;;
29634;SDS011;16557;54.762;56.068;2023-06-14T10:30:02;10.25;;;3.22;;
29634;SDS011;16557;54.762;56.068;2023-06-14T10:33:05;4.50;;;2.45;;
29634;SDS011;16557;54.762;56.068;2023-06-14T10:35:47;10.65;;;6.00;;
29634;SDS011;16557;54.762;56.068;2023-06-14T10:38:29;4.78;;;2.67;;
29634;SDS011;16557;54.762;56.068;2023-06-14T10:41:12;6.53;;;2.90;;
29634;SDS011;16557;54.762;56.068;2023-06-14T10:43:52;9.68;;;2.40;;
29634;SDS011;16557;54.762;56.068;2023-06-14T10:46:37;7.75;;;2.47;;
29634;SDS011;16557;54.762;56.068;2023-06-14T10:49:18;9.88;;;3.40;;
29634;SDS011;16557;54.762;56.068;2023-06-14T10:51:58;6.28;;;2.75;;
29634;SDS011;16557;54.762;56.068;2023-06-14T10:54:58;7.30;;;3.22;;
29634;SDS011;16557;54.762;56.068;2023-06-14T10:57:47;8.13;;;2.90;;
29634;SDS011;16557;54.762;56.068;2023-06-14T11:00:31;7.53;;;2.90;;
29634;SDS011;16557;54.762;56.068;2023-06-14T11:06:15;8.08;;;2.98;;
29634;SDS011;16557;54.762;56.068;2023-06-14T11:11:57;8.30;;;3.75;;
29634;SDS011;16557;54.762;56.068;2023-06-14T11:14:36;5.60;;;2.75;;
29634;SDS011;16557;54.762;56.068;2023-06-14T11:17:23;7.37;;;2.80;;
29634;SDS011;16557;54.762;56.068;2023-06-14T11:20:12;6.92;;;3.00;;
29634;SDS011;16557;54.762;56.068;2023-06-14T11:22:53;13.75;;;3.85;;
29634;SDS011;16557;54.762;56.068;2023-06-14T11:25:33;6.03;;;2.42;;
29634;SDS011;16557;54.762;56.068;2023-06-14T11:28:19;7.33;;;3.20;;
29634;SDS011;16557;54.762;56.068;2023-06-14T11:30:59;5.90;;;2.95;;
29634;SDS011;16557;54.762;56.068;2023-06-14T11:33:40;4.78;;;2.70;;
29634;SDS011;16557;54.762;56.068;2023-06-14T11:36:21;9.43;;;3.33;;
29634;SDS011;16557;54.762;56.068;2023-06-14T11:39:05;6.80;;;3.42;;
29634;SDS011;16557;54.762;56.068;2023-06-14T11:41:52;12.25;;;4.20;;
29634;SDS011;16557;54.762;56.068;2023-06-14T11:44:33;11.00;;;4.05;;
29634;SDS011;16557;54.762;56.068;2023-06-14T11:47:16;10.82;;;3.52;;
29634;SDS011;16557;54.762;56.068;2023-06-14T11:50:03;7.53;;;3.30;;
29634;SDS011;16557;54.762;56.068;2023-06-14T11:52:44;9.23;;;6.40;;
29634;SDS011;16557;54.762;56.068;2023-06-14T11:55:26;8.80;;;3.33;;
29634;SDS011;16557;54.762;56.068;2023-06-14T11:58:06;10.48;;;3.05;;
29634;SDS011;16557;54.762;56.068;2023-06-14T12:00:48;4.87;;;2.75;;
29634;SDS011;16557;54.762;56.068;2023-06-14T12:03:28;7.08;;;3.20;;
29634;SDS011;16557;54.762;56.068;2023-06-14T12:06:08;14.45;;;5.53;;
29634;SDS011;16557;54.762;56.068;2023-06-14T12:09:09;8.03;;;4.20;;
29634;SDS011;16557;54.762;56.068;2023-06-14T12:12:02;7.58;;;3.05;;
29634;SDS011;16557;54.762;56.068;2023-06-14T12:14:42;9.08;;;3.70;;
29634;SDS011;16557;54.762;56.068;2023-06-14T12:17:25;8.25;;;2.92;;
29634;SDS011;16557;54.762;56.068;2023-06-14T12:22:58;9.20;;;3.62;;
29634;SDS011;16557;54.762;56.068;2023-06-14T12:25:48;9.90;;;3.30;;
29634;SDS011;16557;54.762;56.068;2023-06-14T12:28:31;9.05;;;3.25;;
29634;SDS011;16557;54.762;56.068;2023-06-14T12:31:11;11.85;;;3.30;;
29634;SDS011;16557;54.762;56.068;2023-06-14T12:34:11;6.97;;;3.05;;
29634;SDS011;16557;54.762;56.068;2023-06-14T12:36:51;7.47;;;3.10;;
29634;SDS011;16557;54.762;56.068;2023-06-14T12:39:31;9.23;;;3.65;;
29634;SDS011;16557;54.762;56.068;2023-06-14T12:42:12;7.10;;;3.55;;
29634;SDS011;16557;54.762;56.068;2023-06-14T12:44:58;11.55;;;4.17;;
29634;SDS011;16557;54.762;56.068;2023-06-14T12:47:38;6.25;;;3.22;;
29634;SDS011;16557;54.762;56.068;2023-06-14T12:50:19;7.62;;;2.92;;
29634;SDS011;16557;54.762;56.068;2023-06-14T12:52:58;7.53;;;3.17;;
29634;SDS011;16557;54.762;56.068;2023-06-14T12:55:44;8.05;;;3.85;;
29634;SDS011;16557;54.762;56.068;2023-06-14T12:58:28;10.50;;;5.05;;
29634;SDS011;16557;54.762;56.068;2023-06-14T13:01:08;12.88;;;4.70;;
29634;SDS011;16557;54.762;56.068;2023-06-14T13:03:54;8.38;;;3.87;;
29634;SDS011;16557;54.762;56.068;2023-06-14T13:06:33;10.50;;;4.45;;
29634;SDS011;16557;54.762;56.068;2023-06-14T13:09:23;8.90;;;3.47;;
29634;SDS011;16557;54.762;56.068;2023-06-14T13:12:03;10.40;;;3.70;;
29634;SDS011;16557;54.762;56.068;2023-06-14T13:14:44;5.12;;;3.62;;
29634;SDS011;16557;54.762;56.068;2023-06-14T13:17:25;8.25;;;4.00;;
29634;SDS011;16557;54.762;56.068;2023-06-14T13:20:05;5.33;;;3.25;;
29634;SDS011;16557;54.762;56.068;2023-06-14T13:22:48;7.65;;;3.15;;
29634;SDS011;16557;54.762;56.068;2023-06-14T13:25:28;4.80;;;3.12;;
29634;SDS011;16557;54.762;56.068;2023-06-14T13:28:19;11.85;;;3.52;;
29634;SDS011;16557;54.762;56.068;2023-06-14T13:30:59;9.23;;;3.17;;
29634;SDS011;16557;54.762;56.068;2023-06-14T13:33:41;11.03;;;3.65;;
29634;SDS011;16557;54.762;56.068;2023-06-14T13:36:28;8.53;;;3.12;;
29634;SDS011;16557;54.762;56.068;2023-06-14T13:39:08;7.62;;;3.42;;
29634;SDS011;16557;54.762;56.068;2023-06-14T13:41:50;7.85;;;3.22;;
29634;SDS011;16557;54.762;56.068;2023-06-14T13:44:30;10.30;;;3.00;;
29634;SDS011;16557;54.762;56.068;2023-06-14T13:47:11;10.65;;;3.02;;
29634;SDS011;16557;54.762;56.068;2023-06-14T13:49:51;8.20;;;3.20;;
29634;SDS011;16557;54.762;56.068;2023-06-14T13:52:30;15.78;;;3.92;;
29634;SDS011;16557;54.762;56.068;2023-06-14T13:55:11;17.87;;;3.87;;
29634;SDS011;16557;54.762;56.068;2023-06-14T13:57:51;6.92;;;3.30;;
29634;SDS011;16557;54.762;56.068;2023-06-14T14:00:55;10.20;;;3.45;;
29634;SDS011;16557;54.762;56.068;2023-06-14T14:03:37;11.38;;;3.98;;
29634;SDS011;16557;54.762;56.068;2023-06-14T14:06:17;15.43;;;5.60;;
29634;SDS011;16557;54.762;56.068;2023-06-14T14:09:02;9.23;;;4.72;;
29634;SDS011;16557;54.762;56.068;2023-06-14T14:11:48;13.15;;;5.45;;
29634;SDS011;16557;54.762;56.068;2023-06-14T14:14:37;16.40;;;5.45;;
29634;SDS011;16557;54.762;56.068;2023-06-14T14:17:25;17.40;;;6.03;;
29634;SDS011;16557;54.762;56.068;2023-06-14T14:20:05;19.37;;;4.97;;
29634;SDS011;16557;54.762;56.068;2023-06-14T14:22:45;14.43;;;5.58;;
29634;SDS011;16557;54.762;56.068;2023-06-14T14:25:26;13.55;;;5.53;;
29634;SDS011;16557;54.762;56.068;2023-06-14T14:28:11;17.60;;;7.10;;
29634;SDS011;16557;54.762;56.068;2023-06-14T14:30:59;18.62;;;6.85;;
29634;SDS011;16557;54.762;56.068;2023-06-14T14:33:51;12.90;;;6.72;;
29634;SDS011;16557;54.762;56.068;2023-06-14T14:36:41;15.95;;;9.93;;
29634;SDS011;16557;54.762;56.068;2023-06-14T14:39:21;16.67;;;8.40;;
29634;SDS011;16557;54.762;56.068;2023-06-14T14:42:11;15.35;;;7.25;;
29634;SDS011;16557;54.762;56.068;2023-06-14T14:44:51;22.00;;;6.55;;
29634;SDS011;16557;54.762;56.068;2023-06-14T14:47:31;14.25;;;5.85;;
29634;SDS011;16557;54.762;56.068;2023-06-14T14:50:17;13.00;;;6.80;;
29634;SDS011;16557;54.762;56.068;2023-06-14T14:52:57;18.65;;;6.40;;
29634;SDS011;16557;54.762;56.068;2023-06-14T14:55:41;11.57;;;5.12;;
29634;SDS011;16557;54.762;56.068;2023-06-14T14:58:40;8.20;;;4.15;;
29634;SDS011;16557;54.762;56.068;2023-06-14T15:01:24;10.18;;;5.60;;
29634;SDS011;16557;54.762;56.068;2023-06-14T15:04:04;13.15;;;5.25;;
29634;SDS011;16557;54.762;56.068;2023-06-14T15:06:49;10.23;;;4.70;;
29634;SDS011;16557;54.762;56.068;2023-06-14T15:09:29;15.28;;;4.28;;
29634;SDS011;16557;54.762;56.068;2023-06-14T15:12:19;16.20;;;7.42;;
29634;SDS011;16557;54.762;56.068;2023-06-14T15:15:01;18.60;;;5.30;;
29634;SDS011;16557;54.762;56.068;2023-06-14T15:17:46;13.65;;;5.60;;
29634;SDS011;16557;54.762;56.068;2023-06-14T15:20:28;12.73;;;4.80;;
29634;SDS011;16557;54.762;56.068;2023-06-14T15:23:08;16.95;;;5.85;;
29634;SDS011;16557;54.762;56.068;2023-06-14T15:25:54;16.80;;;6.17;;
29634;SDS011;16557;54.762;56.068;2023-06-14T15:28:34;21.73;;;6.62;;
29634;SDS011;16557;54.762;56.068;2023-06-14T15:31:14;15.60;;;5.58;;
29634;SDS011;16557;54.762;56.068;2023-06-14T15:33:59;10.55;;;5.67;;
29634;SDS011;16557;54.762;56.068;2023-06-14T15:36:43;11.12;;;4.47;;
29634;SDS011;16557;54.762;56.068;2023-06-14T15:39:24;17.32;;;5.30;;
29634;SDS011;16557;54.762;56.068;2023-06-14T15:42:07;22.67;;;6.80;;
29634;SDS011;16557;54.762;56.068;2023-06-14T15:44:47;16.52;;;5.53;;
29634;SDS011;16557;54.762;56.068;2023-06-14T15:47:27;18.75;;;4.90;;
29634;SDS011;16557;54.762;56.068;2023-06-14T15:50:07;12.30;;;4.47;;
29634;SDS011;16557;54.762;56.068;2023-06-14T15:52:55;17.17;;;5.28;;
29634;SDS011;16557;54.762;56.068;2023-06-14T15:55:40;12.63;;;4.65;;
29634;SDS011;16557;54.762;56.068;2023-06-14T15:58:20;12.30;;;4.28;;
29634;SDS011;16557;54.762;56.068;2023-06-14T16:01:00;9.95;;;4.42;;
29634;SDS011;16557;54.762;56.068;2023-06-14T16:03:40;12.93;;;4.42;;
29634;SDS011;16557;54.762;56.068;2023-06-14T16:06:23;8.18;;;4.00;;
29634;SDS011;16557;54.762;56.068;2023-06-14T16:09:07;10.13;;;4.28;;
29634;SDS011;16557;54.762;56.068;2023-06-14T16:11:46;13.70;;;4.47;;
29634;SDS011;16557;54.762;56.068;2023-06-14T16:14:32;18.75;;;7.00;;
29634;SDS011;16557;54.762;56.068;2023-06-14T16:17:17;15.30;;;4.58;;